sensor_id;sensor_type;location;lat;lon;timestamp;pressure;altitude;pressure_sealevel;temperature;humidity
58785;BME280;44557;51.862;19.378;2023-03-04T00:00:09;99086.32;;;0.71;93.51
58785;BME280;44557;51.862;19.378;2023-03-04T00:02:30;99086.31;;;0.81;93.50
58785;BME280;44557;51.862;19.378;2023-03-04T00:04:31;99071.91;;;0.60;93.63
58785;BME280;44557;51.862;19.378;2023-03-04T00:06:32;99076.42;;;0.55;93.73
58785;BME280;44557;51.862;19.378;2023-03-04T00:08:33;99076.30;;;0.66;93.41
58785;BME280;44557;51.862;19.378;2023-03-04T00:10:34;99076.36;;;0.61;93.70
58785;BME280;44557;51.862;19.378;2023-03-04T00:12:35;99079.05;;;0.58;93.44
58785;BME280;44557;51.862;19.378;2023-03-04T00:14:36;99081.39;;;0.56;93.63
58785;BME280;44557;51.862;19.378;2023-03-04T00:16:37;99077.54;;;0.53;94.03
58785;BME280;44557;51.862;19.378;2023-03-04T00:18:38;99080.73;;;0.67;93.83
58785;BME280;44557;51.862;19.378;2023-03-04T00:20:39;99077.52;;;0.64;93.30
58785;BME280;44557;51.862;19.378;2023-03-04T00:22:40;99084.02;;;0.77;92.86
58785;BME280;44557;51.862;19.378;2023-03-04T00:24:41;99087.89;;;0.80;93.08
58785;BME280;44557;51.862;19.378;2023-03-04T00:26:42;99074.69;;;0.78;92.51
58785;BME280;44557;51.862;19.378;2023-03-04T00:28:43;99070.88;;;0.89;91.79
58785;BME280;44557;51.862;19.378;2023-03-04T00:30:44;99079.45;;;0.83;91.19
58785;BME280;44557;51.862;19.378;2023-03-04T00:32:45;99081.66;;;0.84;91.88
58785;BME280;44557;51.862;19.378;2023-03-04T00:34:46;99067.64;;;0.64;92.73
58785;BME280;44557;51.862;19.378;2023-03-04T00:36:47;99067.70;;;0.73;93.17
58785;BME280;44557;51.862;19.378;2023-03-04T00:38:48;99065.82;;;0.67;93.21
58785;BME280;44557;51.862;19.378;2023-03-04T00:40:49;99051.65;;;0.61;93.64
58785;BME280;44557;51.862;19.378;2023-03-04T00:42:49;99055.96;;;0.76;93.18
58785;BME280;44557;51.862;19.378;2023-03-04T00:44:50;99055.20;;;0.75;93.05
58785;BME280;44557;51.862;19.378;2023-03-04T00:46:51;99045.61;;;0.75;92.80
58785;BME280;44557;51.862;19.378;2023-03-04T00:48:52;99047.11;;;0.90;92.43
58785;BME280;44557;51.862;19.378;2023-03-04T00:50:53;99045.88;;;0.93;92.48
58785;BME280;44557;51.862;19.378;2023-03-04T00:52:54;99036.68;;;0.91;92.42
58785;BME280;44557;51.862;19.378;2023-03-04T00:54:55;99037.91;;;0.93;92.35
58785;BME280;44557;51.862;19.378;2023-03-04T00:56:56;99030.05;;;0.92;92.82
58785;BME280;44557;51.862;19.378;2023-03-04T00:58:57;99030.71;;;0.99;92.33
58785;BME280;44557;51.862;19.378;2023-03-04T01:00:58;99026.66;;;0.99;92.65
58785;BME280;44557;51.862;19.378;2023-03-04T01:02:59;99018.42;;;1.21;91.72
58785;BME280;44557;51.862;19.378;2023-03-04T01:05:00;99019.40;;;0.98;91.96
58785;BME280;44557;51.862;19.378;2023-03-04T01:07:00;99019.48;;;1.08;92.40
58785;BME280;44557;51.862;19.378;2023-03-04T01:09:02;99019.58;;;1.04;92.36
58785;BME280;44557;51.862;19.378;2023-03-04T01:11:03;99015.86;;;0.98;92.68
58785;BME280;44557;51.862;19.378;2023-03-04T01:13:04;99014.41;;;1.12;92.49
58785;BME280;44557;51.862;19.378;2023-03-04T01:15:05;99008.19;;;1.07;92.42
58785;BME280;44557;51.862;19.378;2023-03-04T01:17:06;99000.28;;;1.11;92.58
58785;BME280;44557;51.862;19.378;2023-03-04T01:19:07;98995.96;;;1.17;92.32
58785;BME280;44557;51.862;19.378;2023-03-04T01:21:08;99002.26;;;1.20;92.19
58785;BME280;44557;51.862;19.378;2023-03-04T01:23:09;98994.27;;;1.25;91.87
58785;BME280;44557;51.862;19.378;2023-03-04T01:25:09;98983.45;;;1.23;91.60
58785;BME280;44557;51.862;19.378;2023-03-04T01:27:11;98983.89;;;1.19;91.69
58785;BME280;44557;51.862;19.378;2023-03-04T01:29:11;98982.09;;;1.12;92.63
58785;BME280;44557;51.862;19.378;2023-03-04T01:31:12;98976.55;;;1.17;92.00
58785;BME280;44557;51.862;19.378;2023-03-04T01:33:13;98974.84;;;1.14;92.49
58785;BME280;44557;51.862;19.378;2023-03-04T01:35:15;98972.72;;;1.22;91.88
58785;BME280;44557;51.862;19.378;2023-03-04T01:37:15;98966.86;;;1.18;91.75
58785;BME280;44557;51.862;19.378;2023-03-04T01:39:16;98959.07;;;1.24;91.88
58785;BME280;44557;51.862;19.378;2023-03-04T01:41:22;98953.23;;;1.22;91.94
58785;BME280;44557;51.862;19.378;2023-03-04T01:43:26;98950.06;;;1.33;91.29
58785;BME280;44557;51.862;19.378;2023-03-04T01:45:28;98945.85;;;1.36;90.99
58785;BME280;44557;51.862;19.378;2023-03-04T01:47:31;98948.23;;;1.43;90.43
58785;BME280;44557;51.862;19.378;2023-03-04T01:49:32;98942.91;;;1.36;90.73
58785;BME280;44557;51.862;19.378;2023-03-04T01:51:33;98940.97;;;1.32;90.68
58785;BME280;44557;51.862;19.378;2023-03-04T01:53:34;98937.87;;;1.29;90.63
58785;BME280;44557;51.862;19.378;2023-03-04T01:55:35;98937.14;;;1.40;90.22
58785;BME280;44557;51.862;19.378;2023-03-04T01:57:38;98932.06;;;1.42;90.18
58785;BME280;44557;51.862;19.378;2023-03-04T01:59:39;98925.04;;;1.28;90.79
58785;BME280;44557;51.862;19.378;2023-03-04T02:01:49;98917.84;;;1.23;91.10
58785;BME280;44557;51.862;19.378;2023-03-04T02:03:50;98915.55;;;1.25;90.65
58785;BME280;44557;51.862;19.378;2023-03-04T02:05:52;98905.09;;;1.36;90.19
58785;BME280;44557;51.862;19.378;2023-03-04T02:07:54;98904.05;;;1.40;89.92
58785;BME280;44557;51.862;19.378;2023-03-04T02:09:55;98902.90;;;1.43;89.88
58785;BME280;44557;51.862;19.378;2023-03-04T02:11:56;98893.81;;;1.48;89.75
58785;BME280;44557;51.862;19.378;2023-03-04T02:13:58;98893.04;;;1.43;89.67
58785;BME280;44557;51.862;19.378;2023-03-04T02:15:59;98886.06;;;1.29;90.42
58785;BME280;44557;51.862;19.378;2023-03-04T02:18:00;98882.79;;;1.36;90.30
58785;BME280;44557;51.862;19.378;2023-03-04T02:22:07;98874.69;;;1.48;89.10
58785;BME280;44557;51.862;19.378;2023-03-04T02:24:22;98868.54;;;1.61;88.77
58785;BME280;44557;51.862;19.378;2023-03-04T02:26:27;98863.21;;;1.47;89.02
58785;BME280;44557;51.862;19.378;2023-03-04T02:28:28;98858.40;;;1.58;88.98
58785;BME280;44557;51.862;19.378;2023-03-04T02:30:29;98856.90;;;1.65;88.33
58785;BME280;44557;51.862;19.378;2023-03-04T02:32:30;98850.31;;;1.52;88.44
58785;BME280;44557;51.862;19.378;2023-03-04T02:34:33;98854.96;;;1.53;88.85
58785;BME280;44557;51.862;19.378;2023-03-04T02:36:35;98846.52;;;1.60;88.47
58785;BME280;44557;51.862;19.378;2023-03-04T02:38:36;98844.00;;;1.45;88.73
58785;BME280;44557;51.862;19.378;2023-03-04T02:40:39;98836.19;;;1.53;88.98
58785;BME280;44557;51.862;19.378;2023-03-04T02:42:43;98832.96;;;1.59;88.56
58785;BME280;44557;51.862;19.378;2023-03-04T02:44:45;98824.01;;;1.48;88.67
58785;BME280;44557;51.862;19.378;2023-03-04T02:46:49;98820.50;;;1.53;88.18
58785;BME280;44557;51.862;19.378;2023-03-04T02:48:50;98819.04;;;1.44;88.76
58785;BME280;44557;51.862;19.378;2023-03-04T02:50:52;98812.40;;;1.67;87.44
58785;BME280;44557;51.862;19.378;2023-03-04T02:52:53;98808.86;;;1.54;87.84
58785;BME280;44557;51.862;19.378;2023-03-04T02:54:54;98804.09;;;1.67;87.09
58785;BME280;44557;51.862;19.378;2023-03-04T02:56:58;98795.53;;;1.53;87.84
58785;BME280;44557;51.862;19.378;2023-03-04T02:58:59;98792.10;;;1.34;88.39
58785;BME280;44557;51.862;19.378;2023-03-04T03:01:02;98779.23;;;1.23;89.43
58785;BME280;44557;51.862;19.378;2023-03-04T03:03:04;98773.60;;;1.42;88.86
58785;BME280;44557;51.862;19.378;2023-03-04T03:05:05;98777.49;;;1.45;88.80
58785;BME280;44557;51.862;19.378;2023-03-04T03:07:05;98766.71;;;1.38;88.71
58785;BME280;44557;51.862;19.378;2023-03-04T03:09:07;98761.14;;;1.46;88.17
58785;BME280;44557;51.862;19.378;2023-03-04T03:11:08;98756.33;;;1.42;88.45
58785;BME280;44557;51.862;19.378;2023-03-04T03:13:09;98751.85;;;1.47;88.20
58785;BME280;44557;51.862;19.378;2023-03-04T03:15:10;98737.71;;;1.37;88.15
58785;BME280;44557;51.862;19.378;2023-03-04T03:17:11;98740.54;;;1.32;88.58
58785;BME280;44557;51.862;19.378;2023-03-04T03:19:12;98740.53;;;1.29;88.97
58785;BME280;44557;51.862;19.378;2023-03-04T03:21:13;98744.93;;;1.26;89.13
58785;BME280;44557;51.862;19.378;2023-03-04T03:23:14;98740.93;;;1.42;88.63
58785;BME280;44557;51.862;19.378;2023-03-04T03:25:17;98744.14;;;1.49;87.59
58785;BME280;44557;51.862;19.378;2023-03-04T03:27:18;98752.45;;;1.38;87.83
58785;BME280;44557;51.862;19.378;2023-03-04T03:29:19;98758.19;;;1.42;87.93
58785;BME280;44557;51.862;19.378;2023-03-04T03:31:20;98757.01;;;1.41;87.52
58785;BME280;44557;51.862;19.378;2023-03-04T03:33:21;98769.17;;;1.57;87.07
58785;BME280;44557;51.862;19.378;2023-03-04T03:35:22;98770.83;;;1.58;86.75
58785;BME280;44557;51.862;19.378;2023-03-04T03:37:23;98775.30;;;1.49;86.95
58785;BME280;44557;51.862;19.378;2023-03-04T03:39:24;98776.25;;;1.50;87.12
58785;BME280;44557;51.862;19.378;2023-03-04T03:41:25;98781.20;;;1.64;85.90
58785;BME280;44557;51.862;19.378;2023-03-04T03:43:26;98780.21;;;1.50;86.16
58785;BME280;44557;51.862;19.378;2023-03-04T03:45:27;98785.09;;;1.61;86.05
58785;BME280;44557;51.862;19.378;2023-03-04T03:47:27;98776.98;;;1.65;85.70
58785;BME280;44557;51.862;19.378;2023-03-04T03:49:28;98792.31;;;1.64;84.92
58785;BME280;44557;51.862;19.378;2023-03-04T03:51:29;98788.90;;;1.67;84.91
58785;BME280;44557;51.862;19.378;2023-03-04T03:53:30;98790.23;;;1.65;84.96
58785;BME280;44557;51.862;19.378;2023-03-04T03:55:31;98793.34;;;1.70;84.87
58785;BME280;44557;51.862;19.378;2023-03-04T03:57:32;98795.30;;;1.73;85.02
58785;BME280;44557;51.862;19.378;2023-03-04T03:59:33;98790.54;;;1.68;84.77
58785;BME280;44557;51.862;19.378;2023-03-04T04:01:34;98786.12;;;1.70;84.30
58785;BME280;44557;51.862;19.378;2023-03-04T04:03:34;98786.48;;;1.60;84.68
58785;BME280;44557;51.862;19.378;2023-03-04T04:05:35;98777.23;;;1.63;84.49
58785;BME280;44557;51.862;19.378;2023-03-04T04:07:36;98775.73;;;1.65;84.28
58785;BME280;44557;51.862;19.378;2023-03-04T04:09:37;98777.19;;;1.60;84.35
58785;BME280;44557;51.862;19.378;2023-03-04T04:11:38;98783.59;;;1.53;84.65
58785;BME280;44557;51.862;19.378;2023-03-04T04:13:39;98784.02;;;1.53;84.34
58785;BME280;44557;51.862;19.378;2023-03-04T04:15:42;98787.48;;;1.56;84.53
58785;BME280;44557;51.862;19.378;2023-03-04T04:17:43;98788.42;;;1.61;84.24
58785;BME280;44557;51.862;19.378;2023-03-04T04:19:44;98788.90;;;1.59;84.67
58785;BME280;44557;51.862;19.378;2023-03-04T04:21:45;98786.66;;;1.56;84.37
58785;BME280;44557;51.862;19.378;2023-03-04T04:23:46;98783.23;;;1.68;84.18
58785;BME280;44557;51.862;19.378;2023-03-04T04:25:47;98778.61;;;1.76;83.75
58785;BME280;44557;51.862;19.378;2023-03-04T04:27:48;98785.47;;;1.67;83.42
58785;BME280;44557;51.862;19.378;2023-03-04T04:29:49;98782.32;;;1.70;83.72
58785;BME280;44557;51.862;19.378;2023-03-04T04:31:52;98782.19;;;1.61;83.83
58785;BME280;44557;51.862;19.378;2023-03-04T04:33:53;98785.76;;;1.66;83.84
58785;BME280;44557;51.862;19.378;2023-03-04T04:35:53;98782.02;;;1.63;84.00
58785;BME280;44557;51.862;19.378;2023-03-04T04:37:54;98784.20;;;1.66;84.11
58785;BME280;44557;51.862;19.378;2023-03-04T04:39:55;98779.22;;;1.78;83.05
58785;BME280;44557;51.862;19.378;2023-03-04T04:41:56;98781.05;;;1.79;83.54
58785;BME280;44557;51.862;19.378;2023-03-04T04:43:57;98773.23;;;1.82;82.84
58785;BME280;44557;51.862;19.378;2023-03-04T04:45:58;98772.09;;;1.76;82.94
58785;BME280;44557;51.862;19.378;2023-03-04T04:47:59;98763.46;;;1.60;83.61
58785;BME280;44557;51.862;19.378;2023-03-04T04:50:00;98774.58;;;1.74;83.04
58785;BME280;44557;51.862;19.378;2023-03-04T04:52:01;98775.06;;;1.66;83.51
58785;BME280;44557;51.862;19.378;2023-03-04T04:54:03;98774.70;;;1.83;83.00
58785;BME280;44557;51.862;19.378;2023-03-04T04:56:17;98775.45;;;1.82;82.90
58785;BME280;44557;51.862;19.378;2023-03-04T04:58:19;98773.43;;;1.87;82.37
58785;BME280;44557;51.862;19.378;2023-03-04T05:00:20;98773.50;;;1.82;82.52
58785;BME280;44557;51.862;19.378;2023-03-04T05:02:21;98774.44;;;1.73;83.50
58785;BME280;44557;51.862;19.378;2023-03-04T05:04:21;98771.60;;;1.76;83.48
58785;BME280;44557;51.862;19.378;2023-03-04T05:06:23;98762.98;;;1.88;82.42
58785;BME280;44557;51.862;19.378;2023-03-04T05:08:24;98776.64;;;1.92;82.10
58785;BME280;44557;51.862;19.378;2023-03-04T05:10:25;98778.66;;;2.02;81.90
58785;BME280;44557;51.862;19.378;2023-03-04T05:12:26;98772.13;;;2.00;82.21
58785;BME280;44557;51.862;19.378;2023-03-04T05:14:27;98772.86;;;1.67;82.85
58785;BME280;44557;51.862;19.378;2023-03-04T05:16:28;98766.88;;;1.63;83.46
58785;BME280;44557;51.862;19.378;2023-03-04T05:18:29;98769.38;;;1.84;82.74
58785;BME280;44557;51.862;19.378;2023-03-04T05:20:30;98770.28;;;1.92;81.99
58785;BME280;44557;51.862;19.378;2023-03-04T05:22:31;98764.63;;;1.73;82.58
58785;BME280;44557;51.862;19.378;2023-03-04T05:24:32;98765.42;;;1.76;82.80
58785;BME280;44557;51.862;19.378;2023-03-04T05:26:34;98755.60;;;1.83;82.90
58785;BME280;44557;51.862;19.378;2023-03-04T05:28:35;98769.19;;;1.75;83.28
58785;BME280;44557;51.862;19.378;2023-03-04T05:30:36;98764.92;;;1.76;82.94
58785;BME280;44557;51.862;19.378;2023-03-04T05:32:37;98758.17;;;1.92;82.49
58785;BME280;44557;51.862;19.378;2023-03-04T05:34:38;98762.34;;;1.78;83.12
58785;BME280;44557;51.862;19.378;2023-03-04T05:36:39;98757.45;;;1.82;83.09
58785;BME280;44557;51.862;19.378;2023-03-04T05:38:39;98764.59;;;1.72;83.16
58785;BME280;44557;51.862;19.378;2023-03-04T05:40:41;98760.30;;;1.77;83.23
58785;BME280;44557;51.862;19.378;2023-03-04T05:42:42;98764.10;;;1.79;83.15
58785;BME280;44557;51.862;19.378;2023-03-04T05:44:43;98773.25;;;1.81;83.02
58785;BME280;44557;51.862;19.378;2023-03-04T05:46:44;98779.64;;;1.87;82.76
58785;BME280;44557;51.862;19.378;2023-03-04T05:48:45;98772.52;;;1.94;82.58
58785;BME280;44557;51.862;19.378;2023-03-04T05:50:46;98775.77;;;2.04;82.08
58785;BME280;44557;51.862;19.378;2023-03-04T05:52:48;98771.80;;;1.97;82.45
58785;BME280;44557;51.862;19.378;2023-03-04T05:54:49;98775.64;;;2.00;82.27
58785;BME280;44557;51.862;19.378;2023-03-04T05:56:50;98762.80;;;1.89;82.81
58785;BME280;44557;51.862;19.378;2023-03-04T05:58:51;98760.72;;;1.95;82.15
58785;BME280;44557;51.862;19.378;2023-03-04T06:00:51;98762.31;;;2.01;81.84
58785;BME280;44557;51.862;19.378;2023-03-04T06:02:52;98760.15;;;1.88;82.28
58785;BME280;44557;51.862;19.378;2023-03-04T06:04:53;98762.08;;;1.70;83.29
58785;BME280;44557;51.862;19.378;2023-03-04T06:06:54;98763.11;;;1.80;82.90
58785;BME280;44557;51.862;19.378;2023-03-04T06:08:55;98763.29;;;1.95;82.28
58785;BME280;44557;51.862;19.378;2023-03-04T06:10:56;98765.67;;;1.94;82.69
58785;BME280;44557;51.862;19.378;2023-03-04T06:12:58;98762.30;;;1.87;82.79
58785;BME280;44557;51.862;19.378;2023-03-04T06:14:59;98763.64;;;1.78;82.88
58785;BME280;44557;51.862;19.378;2023-03-04T06:17:00;98754.82;;;1.79;83.20
58785;BME280;44557;51.862;19.378;2023-03-04T06:19:01;98753.40;;;1.87;82.89
58785;BME280;44557;51.862;19.378;2023-03-04T06:21:02;98757.79;;;1.88;82.64
58785;BME280;44557;51.862;19.378;2023-03-04T06:23:03;98762.96;;;2.01;82.01
58785;BME280;44557;51.862;19.378;2023-03-04T06:25:05;98756.81;;;1.99;82.31
58785;BME280;44557;51.862;19.378;2023-03-04T06:27:06;98763.39;;;1.97;82.29
58785;BME280;44557;51.862;19.378;2023-03-04T06:29:07;98750.23;;;2.00;82.19
58785;BME280;44557;51.862;19.378;2023-03-04T06:31:08;98753.56;;;1.94;82.51
58785;BME280;44557;51.862;19.378;2023-03-04T06:33:08;98755.21;;;1.86;82.84
58785;BME280;44557;51.862;19.378;2023-03-04T06:35:11;98754.50;;;2.03;82.32
58785;BME280;44557;51.862;19.378;2023-03-04T06:37:12;98750.48;;;1.93;82.90
58785;BME280;44557;51.862;19.378;2023-03-04T06:39:13;98751.69;;;2.08;81.87
58785;BME280;44557;51.862;19.378;2023-03-04T06:41:14;98748.33;;;2.12;81.95
58785;BME280;44557;51.862;19.378;2023-03-04T06:43:15;98749.98;;;2.06;81.97
58785;BME280;44557;51.862;19.378;2023-03-04T06:45:16;98750.90;;;1.99;82.45
58785;BME280;44557;51.862;19.378;2023-03-04T06:47:16;98753.95;;;1.76;83.52
58785;BME280;44557;51.862;19.378;2023-03-04T06:49:18;98754.95;;;1.93;82.93
58785;BME280;44557;51.862;19.378;2023-03-04T06:51:19;98754.53;;;2.06;82.80
58785;BME280;44557;51.862;19.378;2023-03-04T06:53:20;98750.92;;;2.17;82.07
58785;BME280;44557;51.862;19.378;2023-03-04T06:55:20;98755.80;;;2.13;81.87
58785;BME280;44557;51.862;19.378;2023-03-04T06:57:21;98756.94;;;1.96;82.97
58785;BME280;44557;51.862;19.378;2023-03-04T06:59:22;98753.55;;;2.00;82.68
58785;BME280;44557;51.862;19.378;2023-03-04T07:01:25;98753.38;;;2.08;82.68
58785;BME280;44557;51.862;19.378;2023-03-04T07:03:26;98750.50;;;2.12;82.69
58785;BME280;44557;51.862;19.378;2023-03-04T07:05:27;98751.36;;;2.08;82.66
58785;BME280;44557;51.862;19.378;2023-03-04T07:07:28;98753.64;;;2.12;82.68
58785;BME280;44557;51.862;19.378;2023-03-04T07:09:29;98750.65;;;2.22;82.63
58785;BME280;44557;51.862;19.378;2023-03-04T07:11:31;98754.45;;;2.22;82.43
58785;BME280;44557;51.862;19.378;2023-03-04T07:13:32;98753.35;;;2.09;82.71
58785;BME280;44557;51.862;19.378;2023-03-04T07:15:36;98751.27;;;1.98;83.44
58785;BME280;44557;51.862;19.378;2023-03-04T07:17:37;98751.55;;;1.92;83.64
58785;BME280;44557;51.862;19.378;2023-03-04T07:19:38;98746.77;;;2.02;84.08
58785;BME280;44557;51.862;19.378;2023-03-04T07:21:40;98747.84;;;2.23;82.72
58785;BME280;44557;51.862;19.378;2023-03-04T07:23:42;98743.38;;;2.22;82.62
58785;BME280;44557;51.862;19.378;2023-03-04T07:25:44;98744.08;;;2.01;83.33
58785;BME280;44557;51.862;19.378;2023-03-04T07:27:44;98743.21;;;2.15;83.22
58785;BME280;44557;51.862;19.378;2023-03-04T07:29:45;98747.17;;;2.33;82.43
58785;BME280;44557;51.862;19.378;2023-03-04T07:31:46;98750.64;;;2.20;82.89
58785;BME280;44557;51.862;19.378;2023-03-04T07:33:48;98750.73;;;2.21;83.08
58785;BME280;44557;51.862;19.378;2023-03-04T07:35:57;98748.44;;;2.24;82.34
58785;BME280;44557;51.862;19.378;2023-03-04T07:37:58;98748.86;;;2.24;82.67
58785;BME280;44557;51.862;19.378;2023-03-04T07:39:59;98754.20;;;2.28;82.83
58785;BME280;44557;51.862;19.378;2023-03-04T07:42:00;98746.34;;;2.37;82.60
58785;BME280;44557;51.862;19.378;2023-03-04T07:44:02;98742.30;;;2.28;82.67
58785;BME280;44557;51.862;19.378;2023-03-04T07:46:04;98745.50;;;2.29;82.58
58785;BME280;44557;51.862;19.378;2023-03-04T07:48:05;98747.46;;;2.49;81.41
58785;BME280;44557;51.862;19.378;2023-03-04T07:50:07;98739.52;;;2.37;82.26
58785;BME280;44557;51.862;19.378;2023-03-04T07:52:08;98737.41;;;2.55;81.70
58785;BME280;44557;51.862;19.378;2023-03-04T07:54:09;98737.73;;;2.53;81.29
58785;BME280;44557;51.862;19.378;2023-03-04T07:56:13;98733.73;;;2.63;81.05
58785;BME280;44557;51.862;19.378;2023-03-04T07:58:14;98737.93;;;2.39;81.85
58785;BME280;44557;51.862;19.378;2023-03-04T08:00:19;98732.86;;;2.39;81.99
58785;BME280;44557;51.862;19.378;2023-03-04T08:02:20;98735.08;;;2.21;82.72
58785;BME280;44557;51.862;19.378;2023-03-04T08:04:24;98730.83;;;2.33;82.35
58785;BME280;44557;51.862;19.378;2023-03-04T08:06:26;98734.44;;;2.41;81.64
58785;BME280;44557;51.862;19.378;2023-03-04T08:08:27;98727.71;;;2.50;81.81
58785;BME280;44557;51.862;19.378;2023-03-04T08:10:27;98733.80;;;2.41;81.64
58785;BME280;44557;51.862;19.378;2023-03-04T08:12:29;98729.23;;;2.54;81.35
58785;BME280;44557;51.862;19.378;2023-03-04T08:14:30;98729.54;;;2.55;81.18
58785;BME280;44557;51.862;19.378;2023-03-04T08:16:31;98725.36;;;2.63;80.94
58785;BME280;44557;51.862;19.378;2023-03-04T08:18:32;98733.81;;;2.62;80.92
58785;BME280;44557;51.862;19.378;2023-03-04T08:20:33;98729.73;;;2.52;81.19
58785;BME280;44557;51.862;19.378;2023-03-04T08:22:34;98726.82;;;2.57;81.04
58785;BME280;44557;51.862;19.378;2023-03-04T08:24:35;98716.11;;;2.52;81.28
58785;BME280;44557;51.862;19.378;2023-03-04T08:26:41;98723.83;;;2.49;81.83
58785;BME280;44557;51.862;19.378;2023-03-04T08:28:43;98720.71;;;2.63;81.22
58785;BME280;44557;51.862;19.378;2023-03-04T08:30:52;98716.27;;;2.72;81.05
58785;BME280;44557;51.862;19.378;2023-03-04T08:32:53;98718.58;;;2.45;82.11
58785;BME280;44557;51.862;19.378;2023-03-04T08:34:54;98717.56;;;2.51;81.38
58785;BME280;44557;51.862;19.378;2023-03-04T08:36:56;98718.66;;;2.57;81.73
58785;BME280;44557;51.862;19.378;2023-03-04T08:38:57;98716.19;;;2.47;81.83
58785;BME280;44557;51.862;19.378;2023-03-04T08:40:58;98715.23;;;2.49;81.63
58785;BME280;44557;51.862;19.378;2023-03-04T08:42:59;98716.26;;;2.66;81.16
58785;BME280;44557;51.862;19.378;2023-03-04T08:45:00;98712.36;;;2.72;81.57
58785;BME280;44557;51.862;19.378;2023-03-04T08:47:01;98708.56;;;2.73;81.33
58785;BME280;44557;51.862;19.378;2023-03-04T08:49:02;98712.33;;;2.77;81.35
58785;BME280;44557;51.862;19.378;2023-03-04T08:51:08;98711.20;;;2.66;82.59
58785;BME280;44557;51.862;19.378;2023-03-04T08:53:10;98705.14;;;3.02;86.17
58785;BME280;44557;51.862;19.378;2023-03-04T08:55:11;98707.64;;;2.88;84.59
58785;BME280;44557;51.862;19.378;2023-03-04T08:57:12;98706.46;;;2.72;83.36
58785;BME280;44557;51.862;19.378;2023-03-04T08:59:13;98698.64;;;2.89;84.23
58785;BME280;44557;51.862;19.378;2023-03-04T09:01:14;98703.12;;;3.10;83.58
58785;BME280;44557;51.862;19.378;2023-03-04T09:03:16;98708.86;;;3.01;83.36
58785;BME280;44557;51.862;19.378;2023-03-04T09:05:19;98707.42;;;2.86;83.30
58785;BME280;44557;51.862;19.378;2023-03-04T09:07:19;98701.17;;;3.21;82.87
58785;BME280;44557;51.862;19.378;2023-03-04T09:09:20;98702.86;;;3.17;83.22
58785;BME280;44557;51.862;19.378;2023-03-04T09:11:21;98700.71;;;2.95;81.59
58785;BME280;44557;51.862;19.378;2023-03-04T09:13:23;98697.40;;;2.85;81.93
58785;BME280;44557;51.862;19.378;2023-03-04T09:15:24;98697.67;;;2.88;82.05
58785;BME280;44557;51.862;19.378;2023-03-04T09:17:25;98697.98;;;3.09;81.40
58785;BME280;44557;51.862;19.378;2023-03-04T09:19:26;98693.00;;;2.84;81.65
58785;BME280;44557;51.862;19.378;2023-03-04T09:21:27;98697.13;;;2.96;81.77
58785;BME280;44557;51.862;19.378;2023-03-04T09:23:28;98697.17;;;3.01;81.97
58785;BME280;44557;51.862;19.378;2023-03-04T09:25:29;98694.92;;;3.00;82.00
58785;BME280;44557;51.862;19.378;2023-03-04T09:27:30;98694.08;;;2.88;82.17
58785;BME280;44557;51.862;19.378;2023-03-04T09:29:31;98695.59;;;3.03;81.93
58785;BME280;44557;51.862;19.378;2023-03-04T09:31:32;98691.28;;;3.05;81.56
58785;BME280;44557;51.862;19.378;2023-03-04T09:33:33;98688.38;;;2.76;82.06
58785;BME280;44557;51.862;19.378;2023-03-04T09:35:34;98688.21;;;2.92;82.15
58785;BME280;44557;51.862;19.378;2023-03-04T09:37:35;98683.73;;;3.05;81.56
58785;BME280;44557;51.862;19.378;2023-03-04T09:39:36;98677.13;;;3.00;81.72
58785;BME280;44557;51.862;19.378;2023-03-04T09:41:43;98684.90;;;2.88;82.29
58785;BME280;44557;51.862;19.378;2023-03-04T09:43:46;98680.38;;;2.98;82.05
58785;BME280;44557;51.862;19.378;2023-03-04T09:45:52;98681.02;;;2.88;82.52
58785;BME280;44557;51.862;19.378;2023-03-04T09:47:55;98672.95;;;2.93;82.56
58785;BME280;44557;51.862;19.378;2023-03-04T09:50:00;98669.63;;;2.86;82.86
58785;BME280;44557;51.862;19.378;2023-03-04T09:56:24;98663.08;;;2.80;83.39
58785;BME280;44557;51.862;19.378;2023-03-04T10:00:55;98662.24;;;2.81;83.44
58785;BME280;44557;51.862;19.378;2023-03-04T10:05:04;98661.84;;;2.76;84.00
58785;BME280;44557;51.862;19.378;2023-03-04T10:07:24;98654.91;;;3.00;83.45
58785;BME280;44557;51.862;19.378;2023-03-04T10:09:52;98655.48;;;2.94;84.05
58785;BME280;44557;51.862;19.378;2023-03-04T10:12:02;98645.41;;;2.78;84.33
58785;BME280;44557;51.862;19.378;2023-03-04T10:14:29;98641.16;;;2.82;84.27
58785;BME280;44557;51.862;19.378;2023-03-04T10:16:39;98647.23;;;2.91;84.45
58785;BME280;44557;51.862;19.378;2023-03-04T10:18:49;98637.08;;;2.90;84.56
58785;BME280;44557;51.862;19.378;2023-03-04T10:23:04;98624.24;;;3.09;83.87
58785;BME280;44557;51.862;19.378;2023-03-04T10:25:20;98629.13;;;3.06;84.71
58785;BME280;44557;51.862;19.378;2023-03-04T10:27:22;98622.66;;;3.15;84.12
58785;BME280;44557;51.862;19.378;2023-03-04T10:29:24;98626.00;;;3.33;83.74
58785;BME280;44557;51.862;19.378;2023-03-04T10:31:33;98626.17;;;3.23;84.06
58785;BME280;44557;51.862;19.378;2023-03-04T10:33:37;98623.05;;;3.29;83.74
58785;BME280;44557;51.862;19.378;2023-03-04T10:35:39;98625.41;;;3.45;83.38
58785;BME280;44557;51.862;19.378;2023-03-04T10:37:48;98620.92;;;3.62;82.53
58785;BME280;44557;51.862;19.378;2023-03-04T10:39:50;98615.75;;;3.35;83.38
58785;BME280;44557;51.862;19.378;2023-03-04T10:44:16;98614.83;;;3.32;84.23
58785;BME280;44557;51.862;19.378;2023-03-04T10:46:19;98615.27;;;3.33;84.66
58785;BME280;44557;51.862;19.378;2023-03-04T10:48:25;98605.41;;;3.48;83.81
58785;BME280;44557;51.862;19.378;2023-03-04T10:50:27;98609.59;;;3.43;84.00
58785;BME280;44557;51.862;19.378;2023-03-04T10:54:46;98604.45;;;3.49;83.94
58785;BME280;44557;51.862;19.378;2023-03-04T10:56:57;98601.05;;;3.37;84.51
58785;BME280;44557;51.862;19.378;2023-03-04T11:01:31;98603.55;;;3.28;85.24
58785;BME280;44557;51.862;19.378;2023-03-04T11:03:34;98597.98;;;3.49;84.53
58785;BME280;44557;51.862;19.378;2023-03-04T11:05:36;98601.70;;;3.57;84.44